Northern & Central Napa County

32 Stations

15 Minute Data | America/Los_Angeles
as of 5/7/26 6:10 AM PDT
Station Date Time Temp (°F) RH (%) Dew Pt (°F) Wind Spd (mph) Wind Dir (°) Wind Gust (mph) Latest Rain (In) Daily Rain (In) Daily Max Temp (°F) Daily Min Temp (°F)
Calistoga-North 5/7/26 0600 52.3   2.7 97   5 51.5   1.1 - - - 0.00 0.00 54.0   2.5 51.8   3.3
Stags Leap Dist (Chimney Rock) 5/7/26 0600 53.1   2.7 97   7 52.2   0.7 1.7   1.6 NNW | 330 3.1   2.3 0.00 0.00 54.1   2.8 52.4   3.2
Diamond Mtn (McEachran) 5/7/26 0600 50.9   3.0 99   10 50.6   0.1 - - - - - 52.7   2.5 50.8   3.0
Diamond Mtn (Schramsberg) 5/7/26 0600 49.8   2.8 100   0 49.9   2.8 - - - 0.00 0.00 51.1   2.9 49.8   2.8
Stags Leap Dist (Silverado Vineyards) 5/7/26 0600 52.0   2.7 93   6 50.1   0.8 1.1   1.0 E | 93 2.3   1.5 0.00 0.00 52.8   3.2 51.9   2.7
Oak Knoll-East (Ranch 53) 5/7/26 0600 53.0   2.8 92   5 50.8   1.3 0.5   0.3 N | 7 2.3   1.0 0.00 0.00 53.8   2.8 52.7   2.8
Rutherford-North (Mee Ln) 5/7/26 0600 50.8   4.0 94   6 49.3   2.2 1.0   0.2 NW | 309 2.8   1.5 0.00 0.00 52.0   4.7 50.7   4.0
Frisinger Napa-NW 5/7/26 0600 53.2   2.5 93   4 51.3   1.2 1.3   0.8 NNE | 19 3.9   2.3 0.00 0.00 53.7   3.2 53.0   2.6
Napa-North (Ranch 29) 5/7/26 0600 53.2   2.2 100   11 53.2   1.1 0.6   0.5 S | 188 2.0   1.0 0.00 0.00 53.4   3.1 51.9   3.4
St. Helena (NVV Office) 5/7/26 0600 53.7   2.6 - - 0.7   0.5 NW | 326 3.3   1.9 0.00 0.00 54.5   3.7 53.2   3.1
Crossroads Ranch 5/7/26 0600 53.4   2.5 92   6 51.1   0.7 0.9   0.4 ENE | 72 2.7   1.5 0.00 0.00 53.8   3.4 53.2   2.7
Oakville 5/7/26 0600 53.1   2.7 95   7 51.7   0.6 1.3   1.0 E | 92 2.5   1.2 0.00 0.00 53.6   3.3 52.9   2.8
OV561-East 5/7/26 0600 53.4   2.3 - - - - - - - 54.0   3.2 53.2   2.5
OV518-West 5/7/26 0600 53.4   2.4 - - - - - - - 53.9   3.3 53.2   2.5
Napa-NW (Ranch 54) 5/7/26 0600 53.1   2.7 94   6 51.3   0.9 0.8   0.6 NE | 46 2.0   0.4 0.00 0.00 54.0   3.2 52.9   2.8
Calistoga (Ranch 78) 5/7/26 0600 52.0   3.3 93   8 50.1   0.6 2.1   1.1 WSW | 247 4.5   2.3 0.00 0.00 53.8   2.6 51.9   3.4
Yountville-SE (Ranch 85) 5/7/26 0600 53.0   2.6 95   5 51.6   1.2 1.7   1.7 NNW | 343 3.2   3.2 0.00 0.00 54.0   2.7 52.8   2.7
Yountville-South (Ranch 87) 5/7/26 0600 53.0   2.6 96   5 52.0   1.0 0.6   0.5 E | 96 1.7   0.8 0.00 0.00 53.8   2.8 52.8   2.6
Rutherford Hill Estate 5/7/26 0600 52.1   2.6 100   11 52.1   0.7 1.0   1.0 WSW | 242 4.4   4.4 0.00 0.00 52.7   3.1 51.8   2.8
Rutherford (STS) 5/7/26 0600 53.0   2.6 87   3 49.4   3.6 1.0   0.9 N | 2 3.4   2.3 0.00 0.00 53.6   3.5 52.9   2.5
Borreo (Soda Canyon) 5/7/26 0600 50.3   2.7 98   7 49.7   0.8 0.9   0.7 ESE | 104 2.3   1.1 0.00 0.00 50.8   3.3 49.6   3.3
Oakville-NE (Ranch 88) 5/7/26 0600 53.1   2.5 93   6 51.2   0.6 0.9   0.9 NNE | 30 4.1   4.1 0.00 0.00 53.7   3.3 52.6   3.0
Soda Canyon 5/7/26 0600 53.0   1.9 90   2 50.2   1.2 0.9   0.9 SSE | 149 3.3   3.3 0.00 0.00 54.1   2.1 47.3   7.3
Silver Oak OV 5/7/26 0600 53.5   2.5 94   6 51.8   0.7 0.4   0.3 ENE | 73 2.8   1.2 0.00 0.00 53.8   3.5 53.1   2.8
Tiara Fria (East St. Helena) 5/7/26 0600 53.8   2.6 95   9 52.3   0.2 1.5   0.9 W | 279 3.4   2.0 0.00 0.00 54.4   3.5 53.3   3.0
To Kalon Remote (TKKE) 5/7/26 0600 53.8   2.5 - - - - - - - 54.1   3.5 53.5   2.6
To Kalon 5/7/26 0600 53.4   2.4 96   5 52.3   1.0 0.3   0.3 NE | 50 1.3   1.3 0.00 0.00 53.8   3.0 53.1   2.6
To Kalon Remote (TKN5) 5/7/26 0600 53.6   2.5 - - - - - - - 54.1   3.1 53.4   2.6
St. Helena-North 5/7/26 0600 53.1   2.7 88   7 49.8   0.3 1.5   1.2 NW | 315 4.2   2.0 0.00 0.00 54.0   3.3 52.9   2.7
Twomey Calistoga 5/7/26 0600 52.3   2.9 92   6 50.0   1.2 1.9   0.8 WNW | 283 5.0   2.3 0.00 0.00 53.6   2.8 52.2   3.0
Wappo Hill Floor 5/7/26 0600 51.6   3.4 100   12 51.6   0.0 1.9   1.9 WNW | 303 4.0   4.0 0.00 0.00 53.2   3.4 51.5   3.5
Yountville (Ranch 67) 5/7/26 0600 52.1   2.9 94   7 50.4   0.8 1.2   1.2 N | 353 2.8   2.8 0.00 0.00 52.8   3.6 52.0   2.9
Max     53.8 100 53.2 2.1 - 5.0 0.00 0.00 54.5 53.5
Avg     52.7 95 51.0 1.1 - 3.1 0.00 - - -
Min     49.8 87 49.3 0.3 - 1.3 0.00 0.00 50.8 47.3